Bicknell, Indiana
Current Conditions -  °F | °C
As of 5:55 AM on Wednesday 28 Jan 2015 (Local Time) from KDCY Reporting Station
Clear Clear  
Wind Chill: 16°   Ceiling: Unl
Heat Index: 24°   Visibility: 10mi
Dew Point: 17°   Wind: 7mph
Humidity: 73%   Direction: 130°SE
Pressure: 30.33"   Gusts: NA
Location:  38.77°N, 87.31°W
Report Text: KDCY 281155Z AUTO 13006KT 10SM CLR M04/M09 A3033 RMK AO2 T10451086 11035 21051
Loading
Personal Weather Stations






























Interactive Weather Map New forecast layout! Learn more

10-Day Weather Forecast

Advertisements
Track Severe Weather on mobile